createdAt,value
2022-11-15T00:00:56.781Z,4.60
2022-11-15T00:03:26.617Z,4.35
2022-11-15T00:05:53.552Z,3.95
2022-11-15T00:08:22.094Z,4.13
2022-11-15T00:10:59.207Z,3.90
2022-11-15T00:13:26.764Z,4.32
2022-11-15T00:15:53.548Z,4.43
2022-11-15T00:18:20.294Z,4.53
2022-11-15T00:20:48.664Z,4.57
2022-11-15T00:23:15.183Z,4.95
2022-11-15T00:25:41.984Z,4.40
2022-11-15T00:28:10.491Z,4.72
2022-11-15T00:30:37.140Z,5.13
2022-11-15T00:33:05.325Z,4.32
2022-11-15T00:35:36.035Z,4.95
2022-11-15T00:38:03.539Z,4.50
2022-11-15T00:40:30.661Z,4.70
2022-11-15T00:42:59.393Z,4.53
2022-11-15T00:45:26.671Z,4.57
2022-11-15T00:47:53.602Z,5.55
2022-11-15T00:50:22.181Z,5.20
2022-11-15T00:52:48.930Z,5.25
2022-11-15T00:55:17.573Z,5.18
2022-11-15T00:57:46.511Z,4.88
2022-11-15T01:00:13.645Z,4.88
2022-11-15T01:02:40.240Z,4.88
2022-11-15T01:05:13.503Z,5.35
2022-11-15T01:07:40.024Z,5.45
2022-11-15T01:10:07.247Z,5.47
2022-11-15T01:12:38.289Z,4.97
2022-11-15T01:15:05.989Z,4.93
2022-11-15T01:17:32.612Z,4.88
2022-11-15T01:19:59.284Z,4.65
2022-11-15T01:22:25.800Z,4.78
2022-11-15T01:24:52.324Z,4.97
2022-11-15T01:27:18.997Z,4.38
2022-11-15T01:29:45.461Z,4.88
2022-11-15T01:32:12.061Z,4.93
2022-11-15T01:34:40.238Z,4.60
2022-11-15T01:37:06.764Z,5.85
2022-11-15T01:39:33.336Z,5.43
2022-11-15T01:42:00.066Z,5.88
2022-11-15T01:44:44.711Z,6.40
2022-11-15T01:47:20.524Z,6.13
2022-11-15T01:52:21.750Z,6.00
2022-11-15T01:54:51.740Z,6.00
2022-11-15T01:57:18.275Z,4.95
2022-11-15T01:59:48.323Z,5.10
2022-11-15T02:02:15.193Z,4.90
2022-11-15T02:04:47.285Z,5.18
2022-11-15T02:07:17.954Z,4.88
2022-11-15T02:09:48.797Z,4.72
2022-11-15T02:12:20.099Z,5.10
2022-11-15T02:14:51.132Z,5.35
2022-11-15T02:17:55.317Z,5.35
2022-11-15T02:20:50.966Z,5.05
2022-11-15T02:23:43.313Z,4.38
2022-11-15T02:26:44.116Z,4.38
2022-11-15T02:29:40.630Z,4.80
2022-11-15T02:32:18.563Z,4.65
2022-11-15T02:34:48.102Z,5.20
2022-11-15T02:37:19.829Z,5.05
2022-11-15T02:39:58.508Z,5.40
2022-11-15T02:42:47.663Z,5.18
2022-11-15T02:45:29.859Z,5.47
2022-11-15T02:47:59.497Z,5.80
2022-11-15T02:50:29.404Z,5.63
2022-11-15T02:52:58.184Z,4.95
2022-11-15T02:55:31.945Z,5.88
2022-11-15T02:58:34.034Z,5.07
2022-11-15T03:01:32.020Z,6.03
2022-11-15T03:04:28.961Z,5.57
2022-11-15T03:07:19.952Z,5.82
2022-11-15T03:09:55.643Z,5.35
2022-11-15T03:12:34.953Z,5.55
2022-11-15T03:15:27.257Z,5.60
2022-11-15T03:18:03.218Z,5.50
2022-11-15T03:20:34.663Z,5.97
2022-11-15T03:23:12.084Z,5.43
2022-11-15T03:25:46.558Z,5.38
2022-11-15T03:28:20.405Z,4.63
2022-11-15T03:30:55.408Z,5.07
2022-11-15T03:33:23.055Z,5.33
2022-11-15T03:35:54.730Z,5.72
2022-11-15T03:38:26.703Z,4.47
2022-11-15T03:41:00.977Z,4.70
2022-11-15T03:43:47.133Z,4.90
2022-11-15T03:46:25.589Z,5.10
2022-11-15T03:49:00.425Z,4.72
2022-11-15T03:51:31.508Z,4.50
2022-11-15T03:53:57.972Z,5.18
2022-11-15T03:56:26.234Z,5.13
2022-11-15T03:58:52.851Z,5.00
2022-11-15T04:01:19.349Z,5.28
2022-11-15T04:03:46.187Z,5.60
2022-11-15T04:06:12.703Z,5.47
2022-11-15T04:08:39.225Z,6.22
2022-11-15T04:11:05.920Z,5.70
2022-11-15T04:13:32.854Z,5.95
2022-11-15T04:15:59.900Z,5.78
2022-11-15T04:18:28.379Z,5.63
2022-11-15T04:21:13.227Z,5.60
2022-11-15T04:24:10.644Z,5.60
2022-11-15T04:26:37.162Z,5.18
2022-11-15T04:29:22.329Z,5.13
2022-11-15T04:31:50.529Z,5.35
2022-11-15T04:34:17.020Z,5.72
2022-11-15T04:37:04.352Z,4.75
2022-11-15T04:39:30.830Z,4.30
2022-11-15T04:41:57.310Z,4.88
2022-11-15T04:44:23.846Z,4.85
2022-11-15T04:46:50.344Z,5.15
2022-11-15T04:49:16.821Z,5.20
2022-11-15T04:51:52.292Z,5.22
2022-11-15T04:54:20.694Z,5.20
2022-11-15T04:56:47.278Z,4.82
2022-11-15T04:59:13.852Z,5.40
2022-11-15T05:01:44.696Z,5.25
2022-11-15T05:04:20.858Z,5.93
2022-11-15T05:06:49.340Z,5.75
2022-11-15T05:09:16.212Z,5.63
2022-11-15T05:11:44.465Z,5.72
2022-11-15T05:14:11.187Z,5.47
2022-11-15T05:16:38.278Z,5.30
2022-11-15T05:19:07.452Z,5.43
2022-11-15T05:21:34.489Z,6.13
2022-11-15T05:24:01.447Z,5.30
2022-11-15T05:26:33.463Z,6.10
2022-11-15T05:29:00.368Z,5.80
2022-11-15T05:31:27.887Z,5.75
2022-11-15T05:33:57.664Z,5.68
2022-11-15T05:36:38.906Z,5.80
2022-11-15T05:39:09.573Z,6.13
2022-11-15T05:42:00.800Z,6.05
2022-11-15T05:44:32.238Z,7.05
2022-11-15T05:46:59.383Z,6.13
2022-11-15T05:49:31.182Z,6.55
2022-11-15T05:52:00.572Z,6.60
2022-11-15T05:54:27.231Z,6.57
2022-11-15T05:56:58.480Z,6.65
2022-11-15T05:59:25.690Z,6.57
2022-11-15T06:01:52.378Z,6.47
2022-11-15T06:04:18.909Z,7.00
2022-11-15T06:06:45.519Z,6.93
2022-11-15T06:09:12.354Z,7.38
2022-11-15T06:11:38.883Z,7.30
2022-11-15T06:14:11.934Z,7.85
2022-11-15T06:16:38.570Z,7.60
2022-11-15T06:19:07.099Z,8.32
2022-11-15T06:21:33.855Z,7.82
2022-11-15T06:24:00.321Z,8.23
2022-11-15T06:26:26.833Z,8.32
2022-11-15T06:29:01.220Z,7.90
2022-11-15T06:36:26.210Z,7.43
2022-11-15T06:38:52.691Z,7.93
2022-11-15T06:41:19.337Z,7.78
2022-11-15T06:43:46.010Z,7.80
2022-11-15T06:46:12.699Z,7.78
2022-11-15T06:48:39.374Z,7.78
2022-11-15T06:51:12.654Z,7.88
2022-11-15T06:53:39.159Z,7.68
2022-11-15T06:56:10.113Z,7.43
2022-11-15T06:58:37.040Z,6.75
2022-11-15T07:01:08.400Z,6.93
2022-11-15T07:03:39.228Z,6.15
2022-11-15T07:06:08.436Z,7.03
2022-11-15T07:08:37.634Z,5.90
2022-11-15T07:11:07.477Z,5.97
2022-11-15T07:13:35.437Z,6.07
2022-11-15T07:16:10.406Z,5.88
2022-11-15T07:18:40.626Z,5.70
2022-11-15T07:21:12.327Z,4.82
2022-11-15T07:23:39.842Z,5.70
2022-11-15T07:26:08.807Z,5.20
2022-11-15T07:28:35.906Z,5.80
2022-11-15T07:31:04.778Z,5.50
2022-11-15T07:33:41.672Z,4.90
2022-11-15T07:36:09.729Z,4.78
2022-11-15T07:38:42.584Z,6.00
2022-11-15T07:41:11.390Z,6.63
2022-11-15T07:43:42.246Z,6.72
2022-11-15T07:46:12.591Z,7.00
2022-11-15T07:48:44.763Z,6.90
2022-11-15T07:51:15.322Z,7.30
2022-11-15T07:53:49.327Z,7.72
2022-11-15T07:56:16.134Z,7.32
2022-11-15T07:58:42.643Z,7.07
2022-11-15T08:01:11.395Z,8.25
2022-11-15T08:03:38.533Z,8.23
2022-11-15T08:06:07.446Z,7.88
2022-11-15T08:08:34.059Z,8.15
2022-11-15T08:11:01.021Z,8.18
2022-11-15T08:13:27.775Z,7.95
2022-11-15T08:16:01.207Z,8.00
2022-11-15T08:18:27.952Z,8.57
2022-11-15T08:20:54.459Z,8.20
2022-11-15T08:23:21.014Z,8.10
2022-11-15T08:25:47.804Z,8.68
2022-11-15T08:28:14.365Z,8.57
2022-11-15T08:30:45.596Z,9.27
2022-11-15T08:33:14.402Z,9.40
2022-11-15T08:35:54.982Z,10.02
2022-11-15T08:38:22.302Z,8.93
2022-11-15T08:41:01.659Z,9.63
2022-11-15T08:43:28.296Z,9.60
2022-11-15T08:45:58.465Z,8.57
2022-11-15T08:48:27.102Z,9.23
2022-11-15T08:50:57.505Z,8.77
2022-11-15T08:53:24.337Z,9.13
2022-11-15T08:55:57.399Z,8.68
2022-11-15T08:58:23.888Z,8.38
2022-11-15T09:00:54.089Z,9.30
2022-11-15T09:03:20.745Z,9.90
2022-11-15T09:05:47.360Z,8.88
2022-11-15T09:08:40.890Z,8.70
2022-11-15T09:11:04.495Z,9.68
2022-11-15T09:13:30.969Z,9.98
2022-11-15T09:16:01.777Z,8.63
2022-11-15T09:18:28.517Z,9.43
2022-11-15T09:20:59.404Z,10.10
2022-11-15T09:23:27.082Z,10.02
2022-11-15T09:25:54.419Z,9.60
2022-11-15T09:28:20.918Z,9.18
2022-11-15T09:30:47.458Z,9.15
2022-11-15T09:33:14.266Z,9.23
2022-11-15T09:35:41.962Z,8.50
2022-11-15T09:38:08.809Z,8.18
2022-11-15T09:40:38.416Z,9.50
2022-11-15T09:43:25.436Z,8.63
2022-11-15T09:46:02.867Z,9.02
2022-11-15T09:48:55.348Z,8.45
2022-11-15T09:51:39.315Z,7.90
2022-11-15T09:57:22.470Z,8.35
2022-11-15T10:00:38.880Z,8.43
2022-11-15T10:03:09.204Z,8.23
2022-11-15T10:05:41.466Z,7.95
2022-11-15T10:08:22.535Z,8.45
2022-11-15T10:11:09.671Z,8.60
2022-11-15T10:13:44.301Z,8.48
2022-11-15T10:16:37.168Z,9.02
2022-11-15T10:19:11.450Z,9.40
2022-11-15T10:22:19.122Z,9.00
2022-11-15T10:24:59.897Z,9.32
2022-11-15T10:27:26.503Z,9.60
2022-11-15T10:29:55.045Z,9.57
2022-11-15T10:32:24.223Z,9.02
2022-11-15T10:34:50.974Z,9.85
2022-11-15T10:40:27.176Z,8.80
2022-11-15T10:43:15.696Z,8.95
2022-11-15T10:45:42.692Z,9.20
2022-11-15T10:48:15.150Z,8.93
2022-11-15T10:50:46.458Z,9.50
2022-11-15T10:53:23.823Z,8.27
2022-11-15T10:55:55.761Z,9.38
2022-11-15T10:58:36.924Z,8.35
2022-11-15T11:01:21.024Z,8.35
2022-11-15T11:04:01.401Z,9.00
2022-11-15T11:06:28.724Z,8.45
2022-11-15T11:09:06.912Z,8.52
2022-11-15T11:11:48.115Z,7.93
2022-11-15T11:14:28.158Z,8.50
2022-11-15T11:17:14.359Z,7.93
2022-11-15T11:22:57.232Z,7.72
2022-11-15T11:25:42.836Z,7.50
2022-11-15T11:28:23.305Z,7.93
2022-11-15T11:31:27.105Z,7.68
2022-11-15T11:34:05.476Z,7.88
2022-11-15T11:36:44.225Z,7.53
2022-11-15T11:39:48.689Z,7.70
2022-11-15T11:42:29.612Z,7.15
2022-11-15T11:45:13.849Z,6.93
2022-11-15T11:47:49.125Z,6.88
2022-11-15T11:50:21.602Z,6.47
2022-11-15T11:53:30.868Z,5.90
2022-11-15T11:56:03.697Z,5.93
2022-11-15T11:58:38.158Z,6.10
2022-11-15T12:01:40.543Z,5.47
2022-11-15T12:04:17.223Z,6.00
2022-11-15T12:06:56.588Z,5.30
2022-11-15T12:09:42.755Z,6.20
2022-11-15T12:12:35.404Z,5.93
2022-11-15T12:15:09.649Z,5.30
2022-11-15T12:17:38.298Z,5.93
2022-11-15T12:20:16.717Z,5.85
2022-11-15T12:22:50.679Z,6.00
2022-11-15T12:25:25.422Z,6.40
2022-11-15T12:27:58.678Z,5.78
2022-11-15T12:30:41.245Z,6.22
2022-11-15T12:33:30.764Z,5.80
2022-11-15T12:36:06.451Z,6.25
2022-11-15T12:38:51.394Z,5.85
2022-11-15T12:41:20.150Z,5.47
2022-11-15T12:43:48.764Z,5.50
2022-11-15T12:46:55.973Z,5.65
2022-11-15T12:51:57.139Z,6.53
2022-11-15T12:54:28.310Z,6.55
2022-11-15T12:57:03.553Z,6.80
2022-11-15T13:00:28.417Z,7.25
2022-11-15T13:03:19.350Z,7.18
2022-11-15T13:05:47.582Z,8.00
2022-11-15T13:08:48.614Z,7.65
2022-11-15T13:11:46.180Z,7.47
2022-11-15T13:14:42.264Z,7.28
2022-11-15T13:17:24.567Z,6.82
2022-11-15T13:20:16.214Z,6.68
2022-11-15T13:23:07.163Z,6.53
2022-11-15T13:25:36.713Z,7.55
2022-11-15T13:28:32.497Z,7.35
2022-11-15T13:31:17.842Z,7.60
2022-11-15T13:33:45.356Z,8.00
2022-11-15T13:36:20.691Z,8.45
2022-11-15T13:38:59.434Z,8.57
2022-11-15T13:41:33.855Z,9.73
2022-11-15T13:44:02.336Z,9.45
2022-11-15T13:46:29.702Z,9.38
2022-11-15T13:49:04.543Z,9.52
2022-11-15T13:51:48.725Z,8.55
2022-11-15T13:54:39.490Z,9.00
2022-11-15T13:57:13.692Z,9.32
2022-11-15T13:59:58.486Z,8.52
2022-11-15T14:02:33.740Z,7.97
2022-11-15T14:05:19.399Z,7.93
2022-11-15T14:08:18.710Z,7.20
2022-11-15T14:10:57.354Z,6.90
2022-11-15T14:13:30.009Z,6.85
2022-11-15T14:16:19.447Z,7.35
2022-11-15T14:18:49.835Z,7.43
2022-11-15T14:21:17.325Z,7.22
2022-11-15T14:23:54.061Z,7.93
2022-11-15T14:26:30.535Z,6.95
2022-11-15T14:31:25.914Z,6.88
2022-11-15T14:33:52.385Z,7.63
2022-11-15T14:36:21.377Z,7.72
2022-11-15T14:38:48.719Z,7.90
2022-11-15T14:41:21.034Z,8.05
2022-11-15T14:43:47.815Z,8.48
2022-11-15T14:46:14.286Z,7.80
2022-11-15T14:48:40.879Z,8.55
2022-11-15T14:51:20.411Z,8.07
2022-11-15T14:53:49.189Z,8.00
2022-11-15T14:56:17.348Z,7.90
2022-11-15T14:58:45.696Z,7.95
2022-11-15T15:01:20.081Z,8.50
2022-11-15T15:03:46.606Z,8.00
2022-11-15T15:06:21.453Z,8.20
2022-11-15T15:08:51.322Z,8.18
2022-11-15T15:11:24.614Z,8.10
2022-11-15T15:13:53.089Z,8.52
2022-11-15T15:16:21.842Z,7.78
2022-11-15T15:18:49.138Z,7.93
2022-11-15T15:21:25.421Z,7.22
2022-11-15T15:23:55.188Z,7.28
2022-11-15T15:26:24.303Z,6.88
2022-11-15T15:28:52.200Z,7.70
2022-11-15T15:31:21.369Z,6.82
2022-11-15T15:33:47.852Z,6.60
2022-11-15T15:36:18.131Z,6.45
2022-11-15T15:38:46.650Z,5.68
2022-11-15T15:41:14.422Z,5.85
2022-11-15T15:43:41.390Z,5.20
2022-11-15T15:46:19.158Z,5.72
2022-11-15T15:48:46.605Z,5.50
2022-11-15T15:51:19.877Z,5.95
2022-11-15T15:53:47.791Z,6.22
2022-11-15T15:56:14.317Z,5.30
2022-11-15T15:58:40.788Z,4.68
2022-11-15T16:01:07.588Z,5.07
2022-11-15T16:03:34.093Z,6.57
2022-11-15T16:06:00.705Z,6.40
2022-11-15T16:08:47.726Z,5.13
2022-11-15T16:11:19.312Z,5.93
2022-11-15T16:13:45.875Z,6.15
2022-11-15T16:16:14.509Z,5.63
2022-11-15T16:18:41.041Z,5.47
2022-11-15T16:21:09.581Z,5.50
2022-11-15T16:23:36.110Z,6.38
2022-11-15T16:26:13.207Z,5.75
2022-11-15T16:28:39.682Z,7.10
2022-11-15T16:31:11.417Z,6.40
2022-11-15T16:33:38.393Z,6.82
2022-11-15T16:38:58.210Z,6.15
2022-11-15T16:41:24.666Z,5.80
2022-11-15T16:43:51.345Z,5.80
2022-11-15T16:46:19.365Z,5.80
2022-11-15T16:48:46.381Z,5.50
2022-11-15T16:51:13.248Z,5.70
2022-11-15T16:53:41.751Z,6.35
2022-11-15T16:56:28.602Z,5.40
2022-11-15T16:59:01.320Z,5.40
2022-11-15T17:01:35.434Z,5.32
2022-11-15T17:04:14.230Z,4.88
2022-11-15T17:06:45.416Z,4.95
2022-11-15T17:09:20.461Z,5.03
2022-11-15T17:11:47.224Z,6.13
2022-11-15T17:14:13.874Z,5.50
2022-11-15T17:16:44.342Z,5.32
2022-11-15T17:19:15.780Z,5.38
2022-11-15T17:21:47.185Z,5.10
2022-11-15T17:24:13.734Z,5.35
2022-11-15T17:26:41.018Z,5.53
2022-11-15T17:29:10.523Z,5.22
2022-11-15T17:31:44.336Z,4.80
2022-11-15T17:34:10.807Z,5.68
2022-11-15T17:36:39.131Z,5.57
2022-11-15T17:39:09.214Z,5.35
2022-11-15T17:41:35.745Z,5.30
2022-11-15T17:44:03.622Z,5.20
2022-11-15T17:46:30.370Z,5.05
2022-11-15T17:48:57.740Z,5.13
2022-11-15T17:51:24.590Z,5.03
2022-11-15T17:53:51.634Z,5.38
2022-11-15T17:56:20.802Z,5.68
2022-11-15T17:58:54.186Z,5.10
2022-11-15T18:01:26.646Z,5.45
2022-11-15T18:03:54.007Z,5.03
2022-11-15T18:06:23.643Z,4.55
2022-11-15T18:08:51.920Z,4.63
2022-11-15T18:11:21.817Z,4.70
2022-11-15T18:13:56.511Z,4.65
2022-11-15T18:16:31.130Z,4.32
2022-11-15T18:18:58.984Z,4.47
2022-11-15T18:21:28.624Z,4.60
2022-11-15T18:23:57.478Z,3.92
2022-11-15T18:26:29.174Z,4.00
2022-11-15T18:28:57.677Z,4.03
2022-11-15T18:31:28.243Z,4.40
2022-11-15T18:33:56.768Z,4.50
2022-11-15T18:36:28.533Z,4.10
2022-11-15T18:39:07.026Z,3.58
2022-11-15T18:41:34.696Z,3.85
2022-11-15T18:44:02.441Z,3.42
2022-11-15T18:46:31.840Z,4.00
2022-11-15T18:48:59.833Z,4.07
2022-11-15T18:51:30.020Z,4.97
2022-11-15T18:53:58.893Z,3.60
2022-11-15T18:56:27.083Z,3.83
2022-11-15T18:58:55.561Z,4.22
2022-11-15T19:01:25.674Z,4.40
2022-11-15T19:03:54.567Z,4.32
2022-11-15T19:06:23.320Z,3.90
2022-11-15T19:08:55.357Z,3.78
2022-11-15T19:11:31.339Z,3.25
2022-11-15T19:14:06.494Z,3.75
2022-11-15T19:16:36.669Z,3.35
2022-11-15T19:19:10.451Z,3.13
2022-11-15T19:21:40.567Z,3.70
2022-11-15T19:24:07.432Z,4.00
2022-11-15T19:26:38.642Z,4.10
2022-11-15T19:29:12.288Z,3.90
2022-11-15T19:31:39.244Z,4.07
2022-11-15T19:34:08.599Z,4.07
2022-11-15T19:36:38.204Z,4.00
2022-11-15T19:39:15.427Z,4.10
2022-11-15T19:41:43.583Z,4.40
2022-11-15T19:44:11.495Z,4.78
2022-11-15T19:46:39.481Z,4.72
2022-11-15T19:49:11.036Z,5.78
2022-11-15T19:51:39.028Z,6.68
2022-11-15T19:54:14.958Z,6.50
2022-11-15T19:56:41.517Z,6.50
2022-11-15T19:59:08.933Z,5.32
2022-11-15T20:01:38.244Z,5.78
2022-11-15T20:04:06.131Z,5.82
2022-11-15T20:06:35.843Z,5.47
2022-11-15T20:09:02.769Z,5.15
2022-11-15T20:11:29.386Z,6.47
2022-11-15T20:14:02.062Z,7.03
2022-11-15T20:16:29.564Z,6.53
2022-11-15T20:18:56.134Z,6.88
2022-11-15T20:21:22.715Z,6.07
2022-11-15T20:23:51.163Z,7.82
2022-11-15T20:26:19.063Z,6.15
2022-11-15T20:28:45.787Z,5.68
2022-11-15T20:31:13.165Z,6.65
2022-11-15T20:33:40.314Z,7.13
2022-11-15T20:36:10.188Z,7.18
2022-11-15T20:38:37.453Z,6.50
2022-11-15T20:41:04.390Z,5.68
2022-11-15T20:43:30.984Z,5.50
2022-11-15T20:45:57.570Z,5.25
2022-11-15T20:48:24.117Z,5.88
2022-11-15T20:51:03.099Z,6.13
2022-11-15T20:53:31.562Z,5.90
2022-11-15T20:56:05.027Z,6.38
2022-11-15T20:58:32.004Z,6.40
2022-11-15T21:01:03.611Z,7.15
2022-11-15T21:03:30.338Z,8.40
2022-11-15T21:05:56.838Z,6.78
2022-11-15T21:08:23.359Z,6.90
2022-11-15T21:11:13.533Z,7.65
2022-11-15T21:13:40.321Z,8.95
2022-11-15T21:16:07.514Z,7.65
2022-11-15T21:18:34.470Z,7.90
2022-11-15T21:21:07.444Z,9.15
2022-11-15T21:23:33.969Z,7.82
2022-11-15T21:26:06.555Z,9.68
2022-11-15T21:28:33.204Z,8.75
2022-11-15T21:31:00.621Z,9.40
2022-11-15T21:33:29.469Z,9.75
2022-11-15T21:35:57.411Z,9.88
2022-11-15T21:38:27.996Z,8.57
2022-11-15T21:40:56.437Z,9.77
2022-11-15T21:43:22.903Z,10.30
2022-11-15T21:46:02.141Z,11.23
2022-11-15T21:48:30.178Z,10.35
2022-11-15T21:51:03.232Z,9.80
2022-11-15T21:53:31.715Z,10.27
2022-11-15T21:56:00.961Z,10.57
2022-11-15T21:58:28.201Z,10.65
2022-11-15T22:01:14.945Z,10.02
2022-11-15T22:03:42.129Z,10.43
2022-11-15T22:06:14.355Z,10.80
2022-11-15T22:08:44.899Z,10.57
2022-11-15T22:11:11.369Z,12.43
2022-11-15T22:13:37.984Z,9.77
2022-11-15T22:16:04.781Z,9.65
2022-11-15T22:18:31.565Z,9.10
2022-11-15T22:21:04.093Z,9.82
2022-11-15T22:23:32.938Z,11.27
2022-11-15T22:26:00.098Z,10.50
2022-11-15T22:28:26.939Z,11.32
2022-11-15T22:30:56.794Z,10.75
2022-11-15T22:33:25.910Z,9.35
2022-11-15T22:35:52.998Z,10.02
2022-11-15T22:38:20.137Z,8.73
2022-11-15T22:40:47.093Z,9.50
2022-11-15T22:43:16.942Z,8.60
2022-11-15T22:45:53.107Z,8.82
2022-11-15T22:48:30.589Z,7.80
2022-11-15T22:50:59.652Z,7.10
2022-11-15T22:53:26.895Z,6.75
2022-11-15T22:55:55.852Z,6.10
2022-11-15T22:58:24.593Z,6.13
2022-11-15T23:00:53.213Z,6.30
2022-11-15T23:03:21.007Z,8.55
2022-11-15T23:05:51.277Z,7.90
2022-11-15T23:08:18.839Z,7.63
2022-11-15T23:11:04.309Z,8.88
2022-11-15T23:13:32.828Z,9.40
2022-11-15T23:16:23.328Z,9.23
2022-11-15T23:18:53.002Z,8.70
2022-11-15T23:21:45.289Z,8.82
2022-11-15T23:24:13.030Z,7.68
2022-11-15T23:26:40.665Z,6.22
2022-11-15T23:29:11.118Z,7.22
2022-11-15T23:32:01.546Z,6.97
2022-11-15T23:34:29.577Z,6.70
2022-11-15T23:36:56.102Z,5.25
2022-11-15T23:39:23.277Z,6.70
2022-11-15T23:41:50.055Z,7.35
2022-11-15T23:44:20.508Z,7.00
2022-11-15T23:46:48.732Z,5.50
2022-11-15T23:49:15.667Z,5.43
2022-11-15T23:51:42.334Z,5.93
2022-11-15T23:54:08.948Z,6.57
2022-11-15T23:56:35.671Z,6.82
2022-11-15T23:59:04.682Z,8.52
